Terminal Aerodrome Forecast
Issued by NWS Corpus Christi, TX

Home | Current Version | Previous Version | Text Only | Print | Product List | Glossary On
Versions: 1 2 3 4 5 6 7 8 9 10 11 12 13 14
000
FTUS44 KCRP 201700
TAFCRP
TAF
KCRP 201733Z 2018/2118 17018G25KT P6SM SCT040 BKN200
     FM201900 14021G29KT P6SM SCT045 SCT200
     FM210200 15016KT P6SM FEW018 SCT200
     FM211000 16010KT P6SM SCT015
     FM211500 17018G25KT P6SM SCT035=

USA.gov is the U.S. government's official web portal to all federal, state and local government web resources and services.